createdAt,value
2018-08-31T00:00:34.437Z,13
2018-08-31T00:10:39.348Z,15
2018-08-31T00:35:51.704Z,13
2018-08-31T00:40:53.980Z,11
2018-08-31T00:45:56.445Z,13
2018-08-31T00:50:58.902Z,13
2018-08-31T00:56:01.347Z,14
2018-08-31T01:01:03.793Z,15
2018-08-31T01:06:06.649Z,17
2018-08-31T01:26:15.936Z,16
2018-08-31T01:41:23.266Z,16
2018-08-31T01:46:25.780Z,13
2018-08-31T01:56:30.590Z,16
2018-08-31T02:01:33.221Z,12
2018-08-31T02:11:37.891Z,14
2018-08-31T02:16:40.354Z,11
2018-08-31T02:21:42.783Z,15
2018-08-31T02:41:52.524Z,13
2018-08-31T03:02:02.311Z,15
2018-08-31T03:07:05.131Z,12
2018-08-31T03:17:09.608Z,11
2018-08-31T03:22:12.293Z,13
2018-08-31T03:27:14.955Z,11
2018-08-31T03:32:16.927Z,9
2018-08-31T03:42:21.826Z,12
2018-08-31T03:47:24.383Z,10
2018-08-31T04:02:31.693Z,11
2018-08-31T04:07:34.186Z,11
2018-08-31T04:12:36.505Z,12
2018-08-31T04:17:38.891Z,11
2018-08-31T04:27:43.797Z,11
2018-08-31T04:32:46.226Z,12
2018-08-31T04:42:51.951Z,12
2018-08-31T04:57:58.756Z,13
2018-08-31T05:13:05.752Z,17
2018-08-31T05:18:08.426Z,13
2018-08-31T05:33:15.504Z,12
2018-08-31T05:43:20.517Z,12
2018-08-31T05:48:22.828Z,16
2018-08-31T05:53:25.289Z,12
2018-08-31T05:58:27.707Z,11
2018-08-31T06:03:30.635Z,15
2018-08-31T06:08:32.711Z,7
2018-08-31T06:13:35.042Z,11
2018-08-31T06:18:37.470Z,7
2018-08-31T06:23:39.896Z,6
2018-08-31T06:33:44.879Z,7
2018-08-31T06:38:47.246Z,9
2018-08-31T06:43:49.679Z,8
2018-08-31T06:48:52.295Z,9
2018-08-31T06:53:54.589Z,12
2018-08-31T06:58:57.959Z,9
2018-08-31T07:03:59.675Z,9
2018-08-31T07:09:01.889Z,8
2018-08-31T07:14:04.309Z,7
2018-08-31T07:19:06.749Z,5
2018-08-31T07:29:11.624Z,9
2018-08-31T07:34:14.062Z,10
2018-08-31T07:39:16.512Z,10
2018-08-31T07:44:22.327Z,7
2018-08-31T07:49:21.389Z,5
2018-08-31T07:54:23.833Z,6
2018-08-31T07:59:26.287Z,8
2018-08-31T08:04:28.770Z,11
2018-08-31T08:09:31.157Z,5
2018-08-31T08:14:33.619Z,6
2018-08-31T08:19:36.189Z,5
2018-08-31T08:24:38.475Z,7
2018-08-31T08:29:40.954Z,8
2018-08-31T08:54:53.298Z,7
2018-08-31T08:59:55.600Z,10
2018-08-31T09:04:58.220Z,6
2018-08-31T09:10:00.825Z,7
2018-08-31T09:15:03.150Z,5
2018-08-31T09:20:05.354Z,5
2018-08-31T09:25:07.897Z,7
2018-08-31T09:30:10.204Z,5
2018-08-31T09:50:20.001Z,7
2018-08-31T09:55:22.399Z,5
2018-08-31T10:00:24.921Z,6
2018-08-31T10:05:27.334Z,6
2018-08-31T10:20:34.639Z,6
2018-08-31T10:25:37.310Z,6
2018-08-31T10:50:49.243Z,4
2018-08-31T11:00:54.166Z,4
2018-08-31T11:05:56.929Z,9
2018-08-31T11:10:59.235Z,2
2018-08-31T11:21:03.905Z,8
2018-08-31T11:26:06.433Z,4
2018-08-31T11:31:08.782Z,6
2018-08-31T11:36:11.324Z,12
2018-08-31T11:56:20.978Z,4
2018-08-31T12:01:23.592Z,4
2018-08-31T12:11:28.592Z,5
2018-08-31T12:16:30.903Z,5
2018-08-31T12:31:38.096Z,5
2018-08-31T12:36:40.740Z,6
2018-08-31T12:51:47.832Z,5
2018-08-31T12:56:50.350Z,5
2018-08-31T13:01:52.705Z,6
2018-08-31T13:11:57.700Z,5
2018-08-31T13:17:00.678Z,8
2018-08-31T13:22:02.483Z,9
2018-08-31T13:37:09.805Z,10
2018-08-31T13:42:12.386Z,6
2018-08-31T13:47:15.243Z,9
2018-08-31T13:52:17.117Z,6
2018-08-31T13:57:19.609Z,7
2018-08-31T14:02:22.194Z,12
2018-08-31T14:12:26.885Z,10
2018-08-31T14:17:29.414Z,9
2018-08-31T14:22:31.825Z,5
2018-08-31T14:27:34.261Z,6
2018-08-31T14:32:36.648Z,6
2018-08-31T14:37:39.117Z,6
2018-08-31T14:42:41.528Z,12
2018-08-31T14:47:44.293Z,5
2018-08-31T14:57:48.861Z,9
2018-08-31T15:17:58.648Z,10
2018-08-31T15:23:01.360Z,8
2018-08-31T15:33:05.963Z,9
2018-08-31T15:38:08.463Z,6
2018-08-31T15:43:10.839Z,4
2018-08-31T15:58:18.289Z,10
2018-08-31T16:03:21.743Z,7
2018-08-31T16:08:23.265Z,4
2018-08-31T16:18:27.925Z,5
2018-08-31T16:23:30.511Z,6
2018-08-31T16:28:33.020Z,7
2018-08-31T16:33:35.380Z,5
2018-08-31T16:38:37.779Z,6
2018-08-31T16:43:40.267Z,6
2018-08-31T16:48:42.696Z,6
2018-08-31T16:53:44.987Z,9
2018-08-31T16:58:47.535Z,12
2018-08-31T17:08:52.303Z,21
2018-08-31T17:13:54.748Z,22
2018-08-31T17:18:57.176Z,11
2018-08-31T17:23:59.625Z,8
2018-08-31T17:29:02.079Z,9
2018-08-31T17:34:04.508Z,7
2018-08-31T17:44:09.444Z,12
2018-08-31T17:49:11.827Z,9
2018-08-31T17:54:14.814Z,4
2018-08-31T18:04:19.315Z,7
2018-08-31T18:09:23.551Z,7
2018-08-31T18:19:26.500Z,7
2018-08-31T18:24:28.914Z,9
2018-08-31T18:29:31.358Z,5
2018-08-31T18:34:33.805Z,6
2018-08-31T18:39:36.257Z,5
2018-08-31T18:44:38.684Z,7
2018-08-31T18:49:41.136Z,9
2018-08-31T18:54:43.601Z,8
2018-08-31T18:59:46.011Z,9
2018-08-31T19:09:50.932Z,11
2018-08-31T19:14:53.310Z,6
2018-08-31T19:19:55.781Z,8
2018-08-31T19:24:58.313Z,10
2018-08-31T19:30:00.645Z,6
2018-08-31T19:35:03.077Z,6
2018-08-31T19:50:10.599Z,6
2018-08-31T20:10:20.193Z,6
2018-08-31T20:15:22.687Z,5
2018-08-31T20:20:25.164Z,7
2018-08-31T20:25:27.637Z,5
2018-08-31T20:35:32.351Z,8
2018-08-31T20:40:34.796Z,9
2018-08-31T20:45:37.241Z,9
2018-08-31T20:50:39.920Z,10
2018-08-31T21:00:44.562Z,7
2018-08-31T21:05:46.996Z,7
2018-08-31T21:20:54.352Z,15
2018-08-31T21:25:56.766Z,20
2018-08-31T21:36:01.655Z,16
2018-08-31T22:01:18.025Z,9
2018-08-31T22:06:16.295Z,11
2018-08-31T22:16:21.168Z,12
2018-08-31T22:26:26.098Z,12
2018-08-31T22:31:28.513Z,15
2018-08-31T22:41:34.626Z,10
2018-08-31T22:46:35.830Z,11
2018-08-31T22:56:42.309Z,8
2018-08-31T23:01:43.128Z,8
2018-08-31T23:11:48.016Z,12
2018-08-31T23:16:50.673Z,10
2018-08-31T23:26:55.907Z,8
2018-08-31T23:37:00.218Z,15
2018-08-31T23:52:07.744Z,11
2018-08-31T23:57:10.216Z,11
